createdAt,value
2022-07-27T00:18:08.829Z,0.00
2022-07-27T00:23:06.887Z,0.00
2022-07-27T00:28:06.757Z,0.00
2022-07-27T00:33:06.656Z,0.00
2022-07-27T00:38:06.664Z,0.00
2022-07-27T00:43:06.336Z,0.00
2022-07-27T00:48:06.480Z,0.00
2022-07-27T00:53:06.277Z,0.00
2022-07-27T00:59:23.862Z,0.00
2022-07-27T01:04:31.603Z,0.00
2022-07-27T01:10:41.286Z,0.00
2022-07-27T01:16:58.779Z,0.00
2022-07-27T01:21:58.578Z,0.00
2022-07-27T01:27:00.257Z,0.00
2022-07-27T01:31:58.508Z,0.00
2022-07-27T01:36:58.544Z,0.00
2022-07-27T01:41:58.531Z,0.00
2022-07-27T01:46:58.345Z,0.00
2022-07-27T01:51:58.210Z,0.00
2022-07-27T01:56:58.131Z,0.00
2022-07-27T02:01:58.296Z,0.00
2022-07-27T02:07:01.040Z,0.00
2022-07-27T02:11:58.064Z,0.00
2022-07-27T02:16:57.878Z,0.00
2022-07-27T02:21:58.143Z,0.00
2022-07-27T02:26:57.765Z,0.00
2022-07-27T02:31:57.650Z,0.00
2022-07-27T02:36:57.917Z,0.00
2022-07-27T02:41:57.512Z,0.00
2022-07-27T02:46:57.530Z,0.00
2022-07-27T02:51:57.373Z,0.00
2022-07-27T02:56:57.462Z,0.00
2022-07-27T03:01:57.408Z,0.00
2022-07-27T03:07:00.252Z,4.00
2022-07-27T03:11:57.174Z,8.00
2022-07-27T03:16:57.213Z,16.00
2022-07-27T03:21:57.110Z,28.00
2022-07-27T03:26:57.000Z,44.00
2022-07-27T03:31:56.846Z,68.00
2022-07-27T03:36:56.907Z,100.00
2022-07-27T03:41:56.808Z,184.00
2022-07-27T03:46:56.875Z,268.00
2022-07-27T03:51:56.588Z,408.00
2022-07-27T03:56:56.636Z,452.00
2022-07-27T04:01:56.769Z,576.00
2022-07-27T04:06:59.410Z,820.00
2022-07-27T04:11:56.353Z,968.00
2022-07-27T04:16:56.374Z,1092.00
2022-07-27T04:21:56.206Z,1156.00
2022-07-27T04:26:56.473Z,1420.00
2022-07-27T04:31:56.012Z,1500.00
2022-07-27T04:36:56.060Z,1312.00
2022-07-27T04:41:55.979Z,1972.00
2022-07-27T04:46:55.997Z,2756.00
2022-07-27T04:51:55.897Z,3040.00
2022-07-27T04:56:56.388Z,3048.00
2022-07-27T05:01:55.851Z,2996.00
2022-07-27T05:06:59.002Z,1996.00
2022-07-27T05:11:55.490Z,1996.00
2022-07-27T05:16:55.597Z,2892.00
2022-07-27T05:21:55.342Z,3864.00
2022-07-27T05:26:55.315Z,3592.00
2022-07-27T05:31:55.457Z,3232.00
2022-07-27T05:36:55.240Z,3084.00
2022-07-27T05:41:55.156Z,2708.00
2022-07-27T05:46:55.133Z,3068.00
2022-07-27T05:51:54.962Z,3220.00
2022-07-27T05:56:54.941Z,5420.00
2022-07-27T06:01:54.868Z,6912.00
2022-07-27T06:07:00.122Z,4608.00
2022-07-27T06:11:54.849Z,7012.00
2022-07-27T06:16:54.837Z,9512.00
2022-07-27T06:21:54.728Z,7768.00
2022-07-27T06:26:54.532Z,8688.00
2022-07-27T06:31:54.585Z,8104.00
2022-07-27T06:36:54.495Z,13668.00
2022-07-27T06:41:58.084Z,11132.00
2022-07-27T06:46:54.278Z,7376.00
2022-07-27T06:51:54.202Z,5620.00
2022-07-27T06:56:54.183Z,5284.00
2022-07-27T07:01:54.066Z,6344.00
2022-07-27T07:06:57.043Z,8340.00
2022-07-27T07:11:53.900Z,5332.00
2022-07-27T07:16:53.990Z,6704.00
2022-07-27T07:21:53.774Z,7256.00
2022-07-27T07:26:53.866Z,8188.00
2022-07-27T07:31:53.959Z,8564.00
2022-07-27T07:36:53.741Z,8428.00
2022-07-27T07:42:01.419Z,10452.00
2022-07-27T07:47:01.671Z,10316.00
2022-07-27T07:52:01.312Z,11008.00
2022-07-27T07:56:53.572Z,14072.00
2022-07-27T08:01:53.314Z,14852.00
2022-07-27T08:06:56.357Z,14304.00
2022-07-27T08:11:53.268Z,15776.00
2022-07-27T08:16:53.322Z,19648.00
2022-07-27T08:21:52.952Z,20928.00
2022-07-27T08:26:52.996Z,20256.00
2022-07-27T08:31:53.508Z,19456.00
2022-07-27T08:36:52.836Z,18464.00
2022-07-27T08:41:52.693Z,21120.00
2022-07-27T08:46:53.856Z,21440.00
2022-07-27T08:51:52.901Z,21184.00
2022-07-27T08:56:52.564Z,21184.00
2022-07-27T09:01:52.627Z,21920.00
2022-07-27T09:06:55.767Z,21184.00
2022-07-27T09:11:52.503Z,19584.00
2022-07-27T09:17:45.985Z,17984.00
2022-07-27T09:21:53.277Z,14680.00
2022-07-27T09:26:52.232Z,17760.00
2022-07-27T09:31:52.388Z,16960.00
2022-07-27T09:37:00.259Z,12932.00
2022-07-27T09:41:51.932Z,11124.00
2022-07-27T09:46:51.996Z,10856.00
2022-07-27T09:52:01.037Z,13188.00
2022-07-27T09:56:52.758Z,13676.00
2022-07-27T10:01:54.754Z,17184.00
2022-07-27T10:07:02.781Z,18304.00
2022-07-27T10:11:52.766Z,19232.00
2022-07-27T10:16:51.652Z,18272.00
2022-07-27T10:21:51.778Z,18400.00
2022-07-27T10:26:51.483Z,19456.00
2022-07-27T10:31:51.338Z,20512.00
2022-07-27T10:36:51.309Z,19072.00
2022-07-27T10:41:51.096Z,21216.00
2022-07-27T10:46:51.171Z,20896.00
2022-07-27T10:51:51.005Z,20480.00
2022-07-27T10:56:51.191Z,21504.00
2022-07-27T11:01:51.136Z,21216.00
2022-07-27T11:07:23.039Z,19808.00
2022-07-27T11:11:51.713Z,20576.00
2022-07-27T11:17:12.328Z,20064.00
2022-07-27T11:21:51.629Z,19456.00
2022-07-27T11:26:50.514Z,20448.00
2022-07-27T11:31:56.041Z,20384.00
2022-07-27T11:36:54.291Z,19648.00
2022-07-27T11:42:11.724Z,18176.00
2022-07-27T11:46:51.348Z,17888.00
2022-07-27T11:51:50.197Z,17984.00
2022-07-27T11:56:50.169Z,13544.00
2022-07-27T12:01:50.141Z,17696.00
2022-07-27T12:06:53.022Z,14984.00
2022-07-27T12:11:50.123Z,14344.00
2022-07-27T12:16:49.906Z,13308.00
2022-07-27T12:21:49.945Z,10408.00
2022-07-27T12:26:49.791Z,11780.00
2022-07-27T12:31:49.737Z,11948.00
2022-07-27T12:36:49.644Z,12760.00
2022-07-27T12:41:49.533Z,10404.00
2022-07-27T12:46:49.639Z,14956.00
2022-07-27T12:51:49.401Z,14112.00
2022-07-27T12:56:49.419Z,14816.00
2022-07-27T13:01:49.460Z,15108.00
2022-07-27T13:06:52.263Z,11748.00
2022-07-27T13:11:49.134Z,9756.00
2022-07-27T13:16:49.187Z,11656.00
2022-07-27T13:21:49.205Z,14228.00
2022-07-27T13:26:49.097Z,13676.00
2022-07-27T13:31:53.640Z,14872.00
2022-07-27T13:36:50.378Z,12752.00
2022-07-27T13:41:48.741Z,14036.00
2022-07-27T13:46:48.974Z,15520.00
2022-07-27T13:51:49.043Z,14996.00
2022-07-27T13:58:06.463Z,13644.00
2022-07-27T14:04:23.638Z,12728.00
2022-07-27T14:09:32.476Z,10588.00
2022-07-27T14:14:31.133Z,9264.00
2022-07-27T14:19:23.558Z,10496.00
2022-07-27T14:24:23.371Z,8772.00
2022-07-27T14:29:23.279Z,8556.00
2022-07-27T14:34:23.129Z,9084.00
2022-07-27T14:39:23.110Z,9916.00
2022-07-27T14:44:23.007Z,11796.00
2022-07-27T14:49:23.451Z,13036.00
2022-07-27T14:54:26.241Z,12764.00
2022-07-27T14:59:22.838Z,10656.00
2022-07-27T15:04:22.846Z,9704.00
2022-07-27T15:09:22.670Z,10628.00
2022-07-27T15:14:22.949Z,18944.00
2022-07-27T15:19:22.721Z,10796.00
2022-07-27T15:24:22.525Z,10976.00
2022-07-27T15:29:22.436Z,9520.00
2022-07-27T15:34:22.563Z,14880.00
2022-07-27T15:39:22.307Z,12596.00
2022-07-27T15:44:22.355Z,8024.00
2022-07-27T15:49:22.227Z,10520.00
2022-07-27T15:54:26.446Z,8212.00
2022-07-27T15:59:22.154Z,5472.00
2022-07-27T16:04:22.060Z,4392.00
2022-07-27T16:09:21.931Z,3976.00
2022-07-27T16:14:24.105Z,3792.00
2022-07-27T16:19:21.762Z,3620.00
2022-07-27T16:24:21.748Z,3436.00
2022-07-27T16:29:21.651Z,3388.00
2022-07-27T16:34:21.605Z,3312.00
2022-07-27T16:39:21.463Z,3240.00
2022-07-27T16:44:21.549Z,3108.00
2022-07-27T16:49:21.506Z,3204.00
2022-07-27T16:54:25.310Z,3072.00
2022-07-27T16:59:21.237Z,3060.00
2022-07-27T17:04:21.270Z,2832.00
2022-07-27T17:09:21.095Z,2748.00
2022-07-27T17:14:21.109Z,2648.00
2022-07-27T17:19:21.053Z,2824.00
2022-07-27T17:24:28.998Z,2664.00
2022-07-27T17:29:20.912Z,2420.00
2022-07-27T17:34:20.810Z,2348.00
2022-07-27T17:39:21.100Z,2276.00
2022-07-27T17:44:20.667Z,2196.00
2022-07-27T17:49:20.604Z,2112.00
2022-07-27T17:54:23.521Z,2008.00
2022-07-27T17:59:37.115Z,1928.00
2022-07-27T18:04:21.518Z,1824.00
2022-07-27T18:09:20.368Z,1708.00
2022-07-27T18:14:20.379Z,1588.00
2022-07-27T18:19:20.278Z,1468.00
2022-07-27T18:24:20.179Z,1344.00
2022-07-27T18:29:20.033Z,1208.00
2022-07-27T18:34:20.024Z,1068.00
2022-07-27T18:39:19.988Z,928.00
2022-07-27T18:44:19.935Z,780.00
2022-07-27T18:49:19.877Z,624.00
2022-07-27T18:54:22.803Z,484.00
2022-07-27T18:59:19.681Z,360.00
2022-07-27T19:04:19.586Z,248.00
2022-07-27T19:09:19.479Z,164.00
2022-07-27T19:14:19.456Z,100.00
2022-07-27T19:19:23.135Z,56.00
2022-07-27T19:24:19.431Z,32.00
2022-07-27T19:29:19.241Z,16.00
2022-07-27T19:34:19.160Z,8.00
2022-07-27T19:39:19.311Z,4.00
2022-07-27T19:44:22.435Z,0.00
2022-07-27T19:49:19.361Z,0.00
2022-07-27T19:54:33.391Z,0.00
2022-07-27T19:59:18.948Z,0.00
2022-07-27T20:04:19.134Z,0.00
2022-07-27T20:09:18.682Z,0.00
2022-07-27T20:14:18.776Z,0.00
2022-07-27T20:19:18.624Z,0.00
2022-07-27T20:24:18.527Z,0.00
2022-07-27T20:29:18.387Z,0.00
2022-07-27T20:34:18.409Z,0.00
2022-07-27T20:39:18.663Z,0.00
2022-07-27T20:44:18.242Z,0.00
2022-07-27T20:49:18.809Z,0.00
2022-07-27T20:54:28.953Z,0.00
2022-07-27T20:59:19.402Z,0.00
2022-07-27T21:04:18.019Z,0.00
2022-07-27T21:09:17.914Z,0.00
2022-07-27T21:14:17.820Z,0.00
2022-07-27T21:19:17.750Z,0.00
2022-07-27T21:24:18.782Z,0.00
2022-07-27T21:29:17.803Z,0.00
2022-07-27T21:34:17.816Z,0.00
2022-07-27T21:39:17.481Z,0.00
2022-07-27T21:44:17.940Z,0.00
2022-07-27T21:49:18.231Z,0.00
2022-07-27T21:54:21.362Z,0.00
2022-07-27T21:59:17.201Z,0.00
2022-07-27T22:04:17.709Z,0.00
2022-07-27T22:09:17.092Z,0.00
2022-07-27T22:14:17.577Z,0.00
2022-07-27T22:19:17.003Z,0.00
2022-07-27T22:24:17.596Z,0.00
2022-07-27T22:29:24.812Z,0.00
2022-07-27T22:34:24.298Z,0.00
2022-07-27T22:39:16.735Z,0.00
2022-07-27T22:44:18.034Z,0.00
2022-07-27T22:49:16.693Z,0.00
2022-07-27T22:54:19.503Z,0.00
2022-07-27T22:59:16.408Z,0.00
2022-07-27T23:04:17.435Z,0.00
2022-07-27T23:09:16.350Z,0.00
2022-07-27T23:14:16.810Z,0.00
2022-07-27T23:19:16.253Z,0.00
2022-07-27T23:24:16.417Z,0.00
2022-07-27T23:29:17.093Z,0.00
2022-07-27T23:34:16.244Z,0.00
2022-07-27T23:39:15.900Z,0.00
2022-07-27T23:44:16.290Z,0.00
2022-07-27T23:49:15.826Z,0.00
2022-07-27T23:54:18.720Z,0.00
2022-07-27T23:59:15.593Z,0.00
